createdAt,value
2022-10-16T00:01:29.934Z,101112.91
2022-10-16T00:06:52.204Z,101120.28
2022-10-16T00:12:16.773Z,101145.63
2022-10-16T00:17:38.953Z,101129.69
2022-10-16T00:23:01.374Z,101131.53
2022-10-16T00:28:23.216Z,101199.19
2022-10-16T00:33:45.753Z,101121.19
2022-10-16T00:39:08.003Z,101119.13
2022-10-16T00:44:58.901Z,101203.88
2022-10-16T00:50:29.325Z,101180.47
2022-10-16T00:55:54.385Z,101176.97
2022-10-16T01:01:22.025Z,101204.44
2022-10-16T01:07:02.653Z,101167.75
2022-10-16T01:12:49.546Z,101204.44
2022-10-16T01:18:26.033Z,101206.06
2022-10-16T01:24:08.710Z,101209.31
2022-10-16T01:29:44.967Z,101210.97
2022-10-16T01:35:18.733Z,101165.34
2022-10-16T01:40:46.975Z,101139.81
2022-10-16T01:46:10.253Z,101188.72
2022-10-16T01:51:32.566Z,101209.91
2022-10-16T01:56:56.553Z,101213.88
2022-10-16T02:02:21.574Z,101207.00
2022-10-16T02:07:44.014Z,101220.03
2022-10-16T02:13:19.666Z,101215.13
2022-10-16T02:19:01.474Z,101216.91
2022-10-16T02:24:40.595Z,101225.16
2022-10-16T02:30:12.326Z,101228.88
2022-10-16T02:35:35.606Z,101226.44
2022-10-16T02:40:56.614Z,101222.38
2022-10-16T02:46:20.334Z,101236.91
2022-10-16T02:51:41.973Z,101233.78
2022-10-16T02:57:04.214Z,101233.31
2022-10-16T03:02:26.573Z,101234.94
2022-10-16T03:07:48.307Z,101235.75
2022-10-16T03:13:10.353Z,101244.25
2022-10-16T03:18:35.166Z,101237.63
2022-10-16T03:23:57.123Z,101240.06
2022-10-16T03:29:19.233Z,101234.47
2022-10-16T03:34:40.813Z,101239.97
2022-10-16T03:40:03.127Z,101195.13
2022-10-16T03:45:26.313Z,101219.34
2022-10-16T03:50:49.886Z,101198.69
2022-10-16T03:56:12.073Z,101181.94
2022-10-16T04:01:34.675Z,101215.81
2022-10-16T04:06:59.625Z,101263.94
2022-10-16T04:12:24.006Z,101256.38
2022-10-16T04:17:46.052Z,101183.81
2022-10-16T04:23:08.315Z,101241.91
2022-10-16T04:28:30.859Z,101237.50
2022-10-16T04:33:55.841Z,101215.25
2022-10-16T04:39:17.883Z,101250.78
2022-10-16T04:44:39.526Z,101282.69
2022-10-16T04:50:03.954Z,101280.94
2022-10-16T04:55:26.133Z,101264.28
2022-10-16T05:00:48.253Z,101290.34
2022-10-16T05:06:10.245Z,101281.38
2022-10-16T05:11:33.174Z,101277.28
2022-10-16T05:16:54.966Z,101261.91
2022-10-16T05:22:16.954Z,101283.66
2022-10-16T05:27:38.906Z,101264.72
2022-10-16T05:33:01.154Z,101259.25
2022-10-16T05:38:23.566Z,101303.94
2022-10-16T05:43:45.326Z,101309.13
2022-10-16T05:49:08.506Z,101250.88
2022-10-16T05:54:30.493Z,101314.44
2022-10-16T05:59:52.964Z,101317.28
2022-10-16T06:05:14.986Z,101314.56
2022-10-16T06:10:36.685Z,101305.56
2022-10-16T06:16:01.116Z,101310.94
2022-10-16T06:21:27.236Z,101283.75
2022-10-16T06:26:49.249Z,101316.31
2022-10-16T06:32:11.990Z,101280.16
2022-10-16T06:37:33.636Z,101267.31
2022-10-16T06:42:58.781Z,101319.59
2022-10-16T06:48:21.434Z,101315.84
2022-10-16T06:54:02.238Z,101324.28
2022-10-16T06:59:25.210Z,101324.78
2022-10-16T07:04:47.405Z,101334.81
2022-10-16T07:10:10.032Z,101337.53
2022-10-16T07:15:31.866Z,101341.41
2022-10-16T07:20:53.993Z,101336.81
2022-10-16T07:26:16.485Z,101338.56
2022-10-16T07:31:39.394Z,101345.94
2022-10-16T07:37:01.314Z,101351.97
2022-10-16T07:42:23.506Z,101257.56
2022-10-16T07:47:45.225Z,101293.31
2022-10-16T07:53:07.049Z,101332.97
2022-10-16T07:58:30.056Z,101332.97
2022-10-16T08:03:53.436Z,101340.56
2022-10-16T08:09:16.073Z,101340.34
2022-10-16T08:14:37.713Z,101293.00
2022-10-16T08:19:59.658Z,101331.94
2022-10-16T08:25:22.645Z,101308.94
2022-10-16T08:30:44.877Z,101325.97
2022-10-16T08:36:08.163Z,101320.03
2022-10-16T08:41:58.067Z,101321.13
2022-10-16T08:47:21.676Z,101325.44
2022-10-16T08:52:45.713Z,101305.97
2022-10-16T08:58:15.668Z,101320.03
2022-10-16T09:03:51.165Z,101300.50
2022-10-16T09:09:32.627Z,101316.75
2022-10-16T09:15:00.805Z,101303.50
2022-10-16T09:20:34.089Z,101314.59
2022-10-16T09:25:59.166Z,101306.97
2022-10-16T09:31:23.107Z,101318.88
2022-10-16T09:36:48.392Z,101316.66
2022-10-16T09:42:15.595Z,101310.47
2022-10-16T09:47:44.084Z,101318.59
2022-10-16T09:53:19.175Z,101291.25
2022-10-16T09:58:50.967Z,101308.56
2022-10-16T10:04:13.633Z,101311.53
2022-10-16T10:09:47.416Z,101302.00
2022-10-16T10:15:14.078Z,101305.22
2022-10-16T10:20:40.135Z,101303.59
2022-10-16T10:26:22.895Z,101294.66
2022-10-16T10:32:00.465Z,101302.25
2022-10-16T10:37:56.646Z,101299.81
2022-10-16T10:43:46.735Z,101297.94
2022-10-16T10:49:21.577Z,101213.72
2022-10-16T10:55:15.945Z,101259.88
2022-10-16T11:00:44.685Z,101215.88
2022-10-16T11:06:26.355Z,101275.22
2022-10-16T11:12:32.157Z,101289.56
2022-10-16T11:18:21.097Z,101248.56
2022-10-16T11:24:01.534Z,101289.56
2022-10-16T11:29:32.575Z,101202.13
2022-10-16T11:35:06.154Z,101258.53
2022-10-16T11:40:36.835Z,101231.28
2022-10-16T11:46:06.560Z,101249.63
2022-10-16T11:51:39.595Z,101283.66
2022-10-16T11:57:08.956Z,101280.69
2022-10-16T12:02:59.027Z,101258.00
2022-10-16T12:08:21.605Z,101272.31
2022-10-16T12:13:44.204Z,101251.25
2022-10-16T12:19:26.685Z,101262.09
2022-10-16T12:24:53.616Z,101254.81
2022-10-16T12:30:24.884Z,101248.88
2022-10-16T12:35:47.853Z,101246.50
2022-10-16T12:41:45.195Z,101232.44
2022-10-16T12:47:22.618Z,101214.63
2022-10-16T12:52:49.355Z,101216.28
2022-10-16T12:58:50.254Z,101200.03
2022-10-16T13:04:21.957Z,101227.63
2022-10-16T13:10:04.485Z,101241.69
2022-10-16T13:15:39.776Z,101237.84
2022-10-16T13:21:24.381Z,101183.81
2022-10-16T13:27:08.734Z,101224.63
2022-10-16T13:32:31.513Z,101177.56
2022-10-16T13:38:16.815Z,101216.75
2022-10-16T13:43:43.342Z,101226.72
2022-10-16T13:49:07.974Z,101235.06
2022-10-16T13:54:32.904Z,101230.44
2022-10-16T13:59:55.136Z,101240.91
2022-10-16T14:05:17.376Z,101241.13
2022-10-16T14:10:40.383Z,101244.25
2022-10-16T14:16:08.375Z,101246.03
2022-10-16T14:21:30.827Z,101240.78
2022-10-16T14:26:52.907Z,101236.56
2022-10-16T14:32:25.626Z,101249.97
2022-10-16T14:37:48.095Z,101248.81
2022-10-16T14:43:24.216Z,101251.34
2022-10-16T14:48:52.648Z,101260.09
2022-10-16T14:54:16.874Z,101251.34
2022-10-16T14:59:42.344Z,101262.53
2022-10-16T15:05:20.545Z,101264.78
2022-10-16T15:10:45.033Z,101244.56
2022-10-16T15:16:13.356Z,101270.16
2022-10-16T15:21:35.494Z,101270.25
2022-10-16T15:26:57.349Z,101254.50
2022-10-16T15:32:19.467Z,101240.69
2022-10-16T15:37:41.787Z,101264.97
2022-10-16T15:43:03.775Z,101238.84
2022-10-16T15:48:25.737Z,101233.63
2022-10-16T15:53:47.814Z,101250.56
2022-10-16T15:59:09.797Z,101232.00
2022-10-16T16:04:43.305Z,101251.88
2022-10-16T16:10:09.436Z,101259.94
2022-10-16T16:15:34.494Z,101264.06
2022-10-16T16:20:57.295Z,101231.03
2022-10-16T16:26:30.987Z,101235.59
2022-10-16T16:31:58.594Z,101241.66
2022-10-16T16:37:20.742Z,101206.00
2022-10-16T16:42:43.619Z,101188.81
2022-10-16T16:48:07.375Z,101166.50
2022-10-16T16:53:29.456Z,101152.34
2022-10-16T16:58:53.925Z,101188.53
2022-10-16T17:04:19.039Z,101213.19
2022-10-16T17:09:44.438Z,101193.44
2022-10-16T17:15:07.715Z,101186.72
2022-10-16T17:20:35.448Z,101167.06
2022-10-16T17:25:58.537Z,101145.25
2022-10-16T17:31:24.417Z,101239.56
2022-10-16T17:36:50.855Z,101166.66
2022-10-16T17:42:13.143Z,101218.66
2022-10-16T17:47:36.357Z,101205.41
2022-10-16T17:52:58.627Z,101237.56
2022-10-16T17:58:20.743Z,101221.97
2022-10-16T18:03:43.057Z,101236.38
2022-10-16T18:09:06.300Z,101239.31
2022-10-16T18:14:30.604Z,101214.44
2022-10-16T18:19:52.833Z,101243.06
2022-10-16T18:25:14.816Z,101200.09
2022-10-16T18:30:36.576Z,101238.16
2022-10-16T18:36:10.062Z,101150.66
2022-10-16T18:42:00.376Z,101223.03
2022-10-16T18:47:22.857Z,101193.00
2022-10-16T18:52:51.965Z,101182.75
2022-10-16T18:58:14.676Z,101149.16
2022-10-16T19:03:39.304Z,101166.47
2022-10-16T19:09:01.574Z,101189.28
2022-10-16T19:14:26.922Z,101200.09
2022-10-16T19:19:49.176Z,101122.25
2022-10-16T19:25:12.856Z,101139.59
2022-10-16T19:30:39.374Z,101215.03
2022-10-16T19:36:30.237Z,101167.06
2022-10-16T19:41:52.353Z,101154.28
2022-10-16T19:47:14.697Z,101199.06
2022-10-16T19:52:37.993Z,101175.91
2022-10-16T19:58:00.394Z,101197.09
2022-10-16T20:03:22.776Z,101208.72
2022-10-16T20:08:49.217Z,101210.50
2022-10-16T20:14:11.334Z,101205.00
2022-10-16T20:19:34.823Z,101211.19
2022-10-16T20:24:57.025Z,101210.97
2022-10-16T20:30:18.953Z,101178.81
2022-10-16T20:35:46.554Z,101211.44
2022-10-16T20:41:09.601Z,101200.38
2022-10-16T20:46:31.849Z,101197.81
2022-10-16T20:51:53.895Z,101187.44
2022-10-16T20:57:15.957Z,101197.47
2022-10-16T21:02:38.357Z,101185.81
2022-10-16T21:08:00.368Z,101179.41
2022-10-16T21:13:26.018Z,101182.09
2022-10-16T21:18:50.701Z,101179.41
2022-10-16T21:24:16.545Z,101179.31
2022-10-16T21:29:39.343Z,101174.38
2022-10-16T21:35:01.496Z,101172.75
2022-10-16T21:40:25.455Z,101164.97
2022-10-16T21:45:47.363Z,101179.59
2022-10-16T21:51:11.354Z,101179.00
2022-10-16T21:56:35.554Z,101173.56
2022-10-16T22:01:57.674Z,101168.41
2022-10-16T22:07:19.634Z,101168.66
2022-10-16T22:12:42.394Z,101167.59
2022-10-16T22:18:04.735Z,101079.97
2022-10-16T22:23:26.774Z,101099.53
2022-10-16T22:28:49.186Z,101148.19
2022-10-16T22:34:14.518Z,101138.66
2022-10-16T22:39:36.663Z,101131.28
2022-10-16T22:44:58.764Z,101155.63
2022-10-16T22:50:20.913Z,101151.31
2022-10-16T22:55:42.983Z,101145.97
2022-10-16T23:01:19.574Z,101139.34
2022-10-16T23:06:41.573Z,101140.16
2022-10-16T23:12:03.773Z,101142.25
2022-10-16T23:17:25.694Z,101139.09
2022-10-16T23:22:47.892Z,101120.25
2022-10-16T23:28:10.210Z,101127.59
2022-10-16T23:33:34.304Z,101136.44
2022-10-16T23:38:56.594Z,101124.09
2022-10-16T23:44:18.534Z,101109.78
2022-10-16T23:49:40.155Z,101116.06
2022-10-16T23:55:02.319Z,101103.75
